sensor_id;sensor_type;location;lat;lon;timestamp;pressure;altitude;pressure_sealevel;temperature;humidity
10464;BME280;5279;42.048;24.638;2022-09-09T00:02:27;97654.25;;;18.46;100.00
10464;BME280;5279;42.048;24.638;2022-09-09T00:04:59;97653.44;;;18.45;100.00
10464;BME280;5279;42.048;24.638;2022-09-09T00:07:38;97661.09;;;18.27;100.00
10464;BME280;5279;42.048;24.638;2022-09-09T00:10:15;97643.84;;;18.15;100.00
10464;BME280;5279;42.048;24.638;2022-09-09T00:12:51;97648.22;;;18.16;100.00
10464;BME280;5279;42.048;24.638;2022-09-09T00:15:25;97647.81;;;18.19;100.00
10464;BME280;5279;42.048;24.638;2022-09-09T00:17:56;97651.88;;;18.30;100.00
10464;BME280;5279;42.048;24.638;2022-09-09T00:20:29;97647.31;;;18.30;100.00
10464;BME280;5279;42.048;24.638;2022-09-09T00:23:04;97643.28;;;18.20;100.00
10464;BME280;5279;42.048;24.638;2022-09-09T00:25:46;97648.84;;;18.18;100.00
10464;BME280;5279;42.048;24.638;2022-09-09T00:28:19;97645.06;;;18.13;100.00
10464;BME280;5279;42.048;24.638;2022-09-09T00:30:46;97663.16;;;18.25;100.00
10464;BME280;5279;42.048;24.638;2022-09-09T00:33:15;97663.16;;;18.25;100.00
10464;BME280;5279;42.048;24.638;2022-09-09T00:35:46;97654.16;;;18.33;100.00
10464;BME280;5279;42.048;24.638;2022-09-09T00:38:19;97655.31;;;18.24;100.00
10464;BME280;5279;42.048;24.638;2022-09-09T00:40:52;97669.03;;;18.35;100.00
10464;BME280;5279;42.048;24.638;2022-09-09T00:43:27;97668.13;;;18.28;100.00
10464;BME280;5279;42.048;24.638;2022-09-09T00:46:15;97666.22;;;18.22;100.00
10464;BME280;5279;42.048;24.638;2022-09-09T00:48:54;97658.78;;;18.03;100.00
10464;BME280;5279;42.048;24.638;2022-09-09T00:51:30;97663.19;;;17.89;100.00
10464;BME280;5279;42.048;24.638;2022-09-09T00:54:15;97650.50;;;17.98;100.00
10464;BME280;5279;42.048;24.638;2022-09-09T00:56:51;97666.56;;;17.98;100.00
10464;BME280;5279;42.048;24.638;2022-09-09T00:59:27;97669.41;;;18.11;100.00
10464;BME280;5279;42.048;24.638;2022-09-09T01:02:03;97663.38;;;18.09;100.00
10464;BME280;5279;42.048;24.638;2022-09-09T01:04:36;97669.50;;;18.03;100.00
10464;BME280;5279;42.048;24.638;2022-09-09T01:07:12;97671.47;;;17.94;100.00
10464;BME280;5279;42.048;24.638;2022-09-09T01:09:52;97658.53;;;17.98;100.00
10464;BME280;5279;42.048;24.638;2022-09-09T01:12:26;97668.34;;;17.91;100.00
10464;BME280;5279;42.048;24.638;2022-09-09T01:15:02;97662.09;;;17.69;100.00
10464;BME280;5279;42.048;24.638;2022-09-09T01:17:31;97670.34;;;17.68;100.00
10464;BME280;5279;42.048;24.638;2022-09-09T01:20:09;97656.09;;;17.67;100.00
10464;BME280;5279;42.048;24.638;2022-09-09T01:22:44;97648.78;;;17.76;100.00
10464;BME280;5279;42.048;24.638;2022-09-09T01:26:08;97652.75;;;17.80;100.00
10464;BME280;5279;42.048;24.638;2022-09-09T01:28:39;97654.19;;;17.97;100.00
10464;BME280;5279;42.048;24.638;2022-09-09T01:31:09;97655.59;;;17.93;100.00
10464;BME280;5279;42.048;24.638;2022-09-09T01:33:38;97641.66;;;17.83;100.00
10464;BME280;5279;42.048;24.638;2022-09-09T01:36:09;97653.06;;;17.70;100.00
10464;BME280;5279;42.048;24.638;2022-09-09T01:38:38;97641.00;;;17.60;100.00
10464;BME280;5279;42.048;24.638;2022-09-09T01:41:09;97644.91;;;17.78;100.00
10464;BME280;5279;42.048;24.638;2022-09-09T01:43:37;97647.66;;;17.85;100.00
10464;BME280;5279;42.048;24.638;2022-09-09T01:46:04;97662.28;;;17.82;100.00
10464;BME280;5279;42.048;24.638;2022-09-09T01:48:32;97646.38;;;17.81;100.00
10464;BME280;5279;42.048;24.638;2022-09-09T01:50:59;97653.50;;;17.74;100.00
10464;BME280;5279;42.048;24.638;2022-09-09T01:53:26;97657.56;;;17.70;100.00
10464;BME280;5279;42.048;24.638;2022-09-09T01:56:10;97653.81;;;17.64;100.00
10464;BME280;5279;42.048;24.638;2022-09-09T01:58:49;97664.81;;;17.55;100.00
10464;BME280;5279;42.048;24.638;2022-09-09T02:01:27;97660.91;;;17.42;100.00
10464;BME280;5279;42.048;24.638;2022-09-09T02:04:03;97668.56;;;17.45;100.00
10464;BME280;5279;42.048;24.638;2022-09-09T02:06:35;97656.75;;;17.40;100.00
10464;BME280;5279;42.048;24.638;2022-09-09T02:09:05;97664.34;;;17.36;100.00
10464;BME280;5279;42.048;24.638;2022-09-09T02:11:33;97664.16;;;17.38;100.00
10464;BME280;5279;42.048;24.638;2022-09-09T02:14:06;97662.97;;;17.26;100.00
10464;BME280;5279;42.048;24.638;2022-09-09T02:16:38;97646.06;;;16.96;100.00
10464;BME280;5279;42.048;24.638;2022-09-09T02:19:11;97668.28;;;16.97;100.00
10464;BME280;5279;42.048;24.638;2022-09-09T02:21:40;97646.06;;;17.11;100.00
10464;BME280;5279;42.048;24.638;2022-09-09T02:24:11;97648.91;;;17.09;100.00
10464;BME280;5279;42.048;24.638;2022-09-09T02:26:42;97654.91;;;16.97;100.00
10464;BME280;5279;42.048;24.638;2022-09-09T02:29:15;97626.19;;;16.76;100.00
10464;BME280;5279;42.048;24.638;2022-09-09T02:31:45;97631.16;;;16.79;100.00
10464;BME280;5279;42.048;24.638;2022-09-09T02:34:13;97658.50;;;16.89;100.00
10464;BME280;5279;42.048;24.638;2022-09-09T02:36:43;97643.66;;;16.86;100.00
10464;BME280;5279;42.048;24.638;2022-09-09T02:39:13;97657.50;;;16.90;100.00
10464;BME280;5279;42.048;24.638;2022-09-09T02:41:42;97643.53;;;16.80;100.00
10464;BME280;5279;42.048;24.638;2022-09-09T02:44:10;97664.22;;;16.86;100.00
10464;BME280;5279;42.048;24.638;2022-09-09T02:46:53;97647.69;;;16.68;100.00
10464;BME280;5279;42.048;24.638;2022-09-09T02:49:28;97666.03;;;16.71;100.00
10464;BME280;5279;42.048;24.638;2022-09-09T02:52:01;97653.09;;;16.60;100.00
10464;BME280;5279;42.048;24.638;2022-09-09T02:54:30;97668.03;;;16.69;100.00
10464;BME280;5279;42.048;24.638;2022-09-09T02:57:09;97664.97;;;16.80;100.00
10464;BME280;5279;42.048;24.638;2022-09-09T02:59:37;97664.59;;;16.83;100.00
10464;BME280;5279;42.048;24.638;2022-09-09T03:02:05;97668.63;;;16.79;100.00
10464;BME280;5279;42.048;24.638;2022-09-09T03:04:32;97661.41;;;16.65;100.00
10464;BME280;5279;42.048;24.638;2022-09-09T03:06:59;97661.06;;;16.68;100.00
10464;BME280;5279;42.048;24.638;2022-09-09T03:09:26;97663.94;;;16.81;100.00
10464;BME280;5279;42.048;24.638;2022-09-09T03:11:53;97667.38;;;16.89;100.00
10464;BME280;5279;42.048;24.638;2022-09-09T03:14:25;97672.16;;;16.94;100.00
10464;BME280;5279;42.048;24.638;2022-09-09T03:16:52;97673.47;;;16.98;100.00
10464;BME280;5279;42.048;24.638;2022-09-09T03:19:19;97661.47;;;16.94;100.00
10464;BME280;5279;42.048;24.638;2022-09-09T03:21:47;97671.44;;;17.00;100.00
10464;BME280;5279;42.048;24.638;2022-09-09T03:24:15;97670.06;;;16.89;100.00
10464;BME280;5279;42.048;24.638;2022-09-09T03:26:42;97669.56;;;16.86;100.00
10464;BME280;5279;42.048;24.638;2022-09-09T03:29:10;97674.34;;;16.76;100.00
10464;BME280;5279;42.048;24.638;2022-09-09T03:31:39;97672.41;;;16.70;100.00
10464;BME280;5279;42.048;24.638;2022-09-09T03:34:06;97678.38;;;16.72;100.00
10464;BME280;5279;42.048;24.638;2022-09-09T03:36:35;97669.25;;;16.66;100.00
10464;BME280;5279;42.048;24.638;2022-09-09T03:39:02;97671.44;;;16.63;100.00
10464;BME280;5279;42.048;24.638;2022-09-09T03:41:30;97677.16;;;16.60;100.00
10464;BME280;5279;42.048;24.638;2022-09-09T03:43:57;97687.25;;;16.50;100.00
10464;BME280;5279;42.048;24.638;2022-09-09T03:46:25;97668.19;;;16.53;100.00
10464;BME280;5279;42.048;24.638;2022-09-09T03:48:54;97675.44;;;16.67;100.00
10464;BME280;5279;42.048;24.638;2022-09-09T03:51:22;97687.09;;;16.74;100.00
10464;BME280;5279;42.048;24.638;2022-09-09T03:53:49;97678.34;;;16.80;100.00
10464;BME280;5279;42.048;24.638;2022-09-09T03:56:16;97676.38;;;16.74;100.00
10464;BME280;5279;42.048;24.638;2022-09-09T03:58:44;97677.78;;;16.84;100.00
10464;BME280;5279;42.048;24.638;2022-09-09T04:01:12;97672.22;;;16.71;100.00
10464;BME280;5279;42.048;24.638;2022-09-09T04:03:40;97676.97;;;16.84;100.00
10464;BME280;5279;42.048;24.638;2022-09-09T04:06:10;97677.84;;;16.76;100.00
10464;BME280;5279;42.048;24.638;2022-09-09T04:08:37;97672.78;;;16.81;100.00
10464;BME280;5279;42.048;24.638;2022-09-09T04:11:05;97674.28;;;16.84;100.00
10464;BME280;5279;42.048;24.638;2022-09-09T04:13:33;97674.28;;;16.84;100.00
10464;BME280;5279;42.048;24.638;2022-09-09T04:16:02;97676.63;;;16.64;100.00
10464;BME280;5279;42.048;24.638;2022-09-09T04:18:30;97678.56;;;16.56;100.00
10464;BME280;5279;42.048;24.638;2022-09-09T04:20:57;97661.53;;;16.26;100.00
10464;BME280;5279;42.048;24.638;2022-09-09T04:23:27;97681.97;;;16.41;100.00
10464;BME280;5279;42.048;24.638;2022-09-09T04:25:57;97669.81;;;16.54;100.00
10464;BME280;5279;42.048;24.638;2022-09-09T04:28:26;97666.09;;;16.63;100.00
10464;BME280;5279;42.048;24.638;2022-09-09T04:30:54;97674.09;;;16.85;100.00
10464;BME280;5279;42.048;24.638;2022-09-09T04:33:23;97680.94;;;17.03;100.00
10464;BME280;5279;42.048;24.638;2022-09-09T04:35:52;97687.72;;;17.13;100.00
10464;BME280;5279;42.048;24.638;2022-09-09T04:38:21;97689.19;;;17.30;100.00
10464;BME280;5279;42.048;24.638;2022-09-09T04:40:51;97699.63;;;17.25;100.00
10464;BME280;5279;42.048;24.638;2022-09-09T04:43:19;97702.81;;;17.06;100.00
10464;BME280;5279;42.048;24.638;2022-09-09T04:45:48;97701.44;;;16.96;100.00
10464;BME280;5279;42.048;24.638;2022-09-09T04:48:16;97705.31;;;16.93;100.00
10464;BME280;5279;42.048;24.638;2022-09-09T04:50:43;97696.56;;;16.99;100.00
10464;BME280;5279;42.048;24.638;2022-09-09T05:12:54;97712.59;;;19.01;100.00
10464;BME280;5279;42.048;24.638;2022-09-09T05:15:21;97707.59;;;18.98;100.00
10464;BME280;5279;42.048;24.638;2022-09-09T05:17:48;97687.13;;;18.97;100.00
10464;BME280;5279;42.048;24.638;2022-09-09T05:20:15;97705.59;;;19.06;100.00
10464;BME280;5279;42.048;24.638;2022-09-09T05:22:42;97702.41;;;19.24;100.00
10464;BME280;5279;42.048;24.638;2022-09-09T05:25:09;97704.66;;;19.42;100.00
10464;BME280;5279;42.048;24.638;2022-09-09T05:27:36;97707.28;;;19.70;100.00
10464;BME280;5279;42.048;24.638;2022-09-09T05:30:06;97693.31;;;19.87;100.00
10464;BME280;5279;42.048;24.638;2022-09-09T05:32:33;97702.88;;;20.03;100.00
10464;BME280;5279;42.048;24.638;2022-09-09T05:35:00;97696.69;;;20.15;100.00
10464;BME280;5279;42.048;24.638;2022-09-09T05:37:27;97695.94;;;20.35;100.00
10464;BME280;5279;42.048;24.638;2022-09-09T05:39:55;97703.44;;;20.52;100.00
10464;BME280;5279;42.048;24.638;2022-09-09T05:42:23;97724.19;;;20.71;100.00
10464;BME280;5279;42.048;24.638;2022-09-09T05:44:50;97707.22;;;20.84;95.55
10464;BME280;5279;42.048;24.638;2022-09-09T05:47:21;97711.34;;;20.73;94.71
10464;BME280;5279;42.048;24.638;2022-09-09T05:49:47;97707.41;;;20.83;96.27
10464;BME280;5279;42.048;24.638;2022-09-09T05:52:14;97713.00;;;21.01;93.40
10464;BME280;5279;42.048;24.638;2022-09-09T05:54:41;97710.94;;;21.16;92.50
10464;BME280;5279;42.048;24.638;2022-09-09T05:57:08;97709.72;;;21.12;89.11
10464;BME280;5279;42.048;24.638;2022-09-09T05:59:35;97711.59;;;21.18;87.25
10464;BME280;5279;42.048;24.638;2022-09-09T06:02:02;97709.25;;;21.41;86.93
10464;BME280;5279;42.048;24.638;2022-09-09T06:04:30;97699.09;;;21.50;85.08
10464;BME280;5279;42.048;24.638;2022-09-09T06:06:57;97688.00;;;21.77;84.58
10464;BME280;5279;42.048;24.638;2022-09-09T06:09:24;97669.66;;;22.06;83.65
10464;BME280;5279;42.048;24.638;2022-09-09T06:11:51;97669.50;;;22.32;86.21
10464;BME280;5279;42.048;24.638;2022-09-09T06:14:19;97676.72;;;22.38;83.81
10464;BME280;5279;42.048;24.638;2022-09-09T06:16:47;97680.41;;;22.50;80.06
10464;BME280;5279;42.048;24.638;2022-09-09T06:19:13;97676.44;;;22.53;79.35
10464;BME280;5279;42.048;24.638;2022-09-09T06:21:42;97682.22;;;22.56;82.45
10464;BME280;5279;42.048;24.638;2022-09-09T06:24:09;97672.78;;;22.72;81.27
10464;BME280;5279;42.048;24.638;2022-09-09T06:26:39;97671.03;;;22.84;78.79
10464;BME280;5279;42.048;24.638;2022-09-09T06:29:07;97684.44;;;22.97;78.55
10464;BME280;5279;42.048;24.638;2022-09-09T06:31:35;97677.72;;;23.06;76.99
10464;BME280;5279;42.048;24.638;2022-09-09T06:34:05;97697.28;;;23.02;78.67
10464;BME280;5279;42.048;24.638;2022-09-09T06:36:33;97700.09;;;23.13;74.05
10464;BME280;5279;42.048;24.638;2022-09-09T06:39:04;97694.19;;;23.23;73.97
10464;BME280;5279;42.048;24.638;2022-09-09T06:41:32;97707.31;;;23.19;72.25
10464;BME280;5279;42.048;24.638;2022-09-09T06:43:59;97706.22;;;23.27;71.83
10464;BME280;5279;42.048;24.638;2022-09-09T06:46:27;97707.44;;;23.31;73.04
10464;BME280;5279;42.048;24.638;2022-09-09T06:48:56;97707.78;;;23.41;72.42
10464;BME280;5279;42.048;24.638;2022-09-09T06:51:26;97714.41;;;23.63;73.30
10464;BME280;5279;42.048;24.638;2022-09-09T06:53:54;97717.00;;;23.76;69.04
10464;BME280;5279;42.048;24.638;2022-09-09T06:56:24;97723.06;;;23.90;69.56
10464;BME280;5279;42.048;24.638;2022-09-09T06:58:52;97720.81;;;23.87;67.04
10464;BME280;5279;42.048;24.638;2022-09-09T07:01:22;97714.56;;;24.05;68.01
10464;BME280;5279;42.048;24.638;2022-09-09T07:03:50;97711.25;;;24.21;66.52
10464;BME280;5279;42.048;24.638;2022-09-09T07:06:19;97703.69;;;24.41;67.31
10464;BME280;5279;42.048;24.638;2022-09-09T07:08:49;97703.31;;;24.67;66.94
10464;BME280;5279;42.048;24.638;2022-09-09T07:11:17;97703.88;;;24.87;63.26
10464;BME280;5279;42.048;24.638;2022-09-09T07:13:46;97700.22;;;24.82;61.71
10464;BME280;5279;42.048;24.638;2022-09-09T07:16:15;97703.66;;;24.89;61.91
10464;BME280;5279;42.048;24.638;2022-09-09T07:18:42;97707.34;;;24.76;62.13
10464;BME280;5279;42.048;24.638;2022-09-09T07:21:09;97702.31;;;24.80;63.58
10464;BME280;5279;42.048;24.638;2022-09-09T07:23:37;97699.81;;;25.20;61.20
10464;BME280;5279;42.048;24.638;2022-09-09T07:26:08;97700.38;;;25.22;59.46
10464;BME280;5279;42.048;24.638;2022-09-09T07:28:36;97713.69;;;25.23;60.48
10464;BME280;5279;42.048;24.638;2022-09-09T07:31:05;97706.28;;;25.19;61.13
10464;BME280;5279;42.048;24.638;2022-09-09T07:33:34;97702.50;;;25.20;61.18
10464;BME280;5279;42.048;24.638;2022-09-09T07:36:05;97703.09;;;25.45;60.03
10464;BME280;5279;42.048;24.638;2022-09-09T07:38:38;97710.75;;;25.48;60.56
10464;BME280;5279;42.048;24.638;2022-09-09T07:41:06;97699.00;;;25.54;59.48
10464;BME280;5279;42.048;24.638;2022-09-09T07:43:37;97698.97;;;25.77;58.81
10464;BME280;5279;42.048;24.638;2022-09-09T07:46:06;97702.97;;;25.86;55.44
10464;BME280;5279;42.048;24.638;2022-09-09T07:48:33;97697.91;;;25.90;55.02
10464;BME280;5279;42.048;24.638;2022-09-09T07:51:08;97699.19;;;25.87;57.69
10464;BME280;5279;42.048;24.638;2022-09-09T07:53:36;97700.09;;;26.04;56.67
10464;BME280;5279;42.048;24.638;2022-09-09T07:56:05;97702.53;;;26.29;56.05
10464;BME280;5279;42.048;24.638;2022-09-09T07:58:32;97697.31;;;26.28;56.25
10464;BME280;5279;42.048;24.638;2022-09-09T08:00:59;97689.38;;;26.38;55.44
10464;BME280;5279;42.048;24.638;2022-09-09T08:03:27;97693.66;;;26.34;54.55
10464;BME280;5279;42.048;24.638;2022-09-09T08:06:00;97686.31;;;26.63;55.67
10464;BME280;5279;42.048;24.638;2022-09-09T08:08:28;97687.47;;;26.67;54.79
10464;BME280;5279;42.048;24.638;2022-09-09T08:11:02;97690.88;;;26.90;54.71
10464;BME280;5279;42.048;24.638;2022-09-09T08:13:28;97698.56;;;26.93;51.99
10464;BME280;5279;42.048;24.638;2022-09-09T08:16:04;97689.50;;;27.04;52.37
10464;BME280;5279;42.048;24.638;2022-09-09T08:18:32;97687.34;;;27.06;51.32
10464;BME280;5279;42.048;24.638;2022-09-09T08:21:05;97686.13;;;27.14;54.50
10464;BME280;5279;42.048;24.638;2022-09-09T08:23:34;97683.66;;;27.12;52.53
10464;BME280;5279;42.048;24.638;2022-09-09T08:26:05;97684.38;;;27.25;53.18
10464;BME280;5279;42.048;24.638;2022-09-09T08:28:34;97691.94;;;27.39;51.89
10464;BME280;5279;42.048;24.638;2022-09-09T08:31:08;97676.31;;;27.30;50.04
10464;BME280;5279;42.048;24.638;2022-09-09T08:33:37;97690.19;;;27.45;51.06
10464;BME280;5279;42.048;24.638;2022-09-09T08:36:05;97680.22;;;27.72;51.86
10464;BME280;5279;42.048;24.638;2022-09-09T08:38:34;97681.41;;;27.59;49.95
10464;BME280;5279;42.048;24.638;2022-09-09T08:41:14;97680.22;;;27.72;49.14
10464;BME280;5279;42.048;24.638;2022-09-09T08:43:46;97685.16;;;27.75;49.13
10464;BME280;5279;42.048;24.638;2022-09-09T08:46:20;97690.81;;;27.90;48.71
10464;BME280;5279;42.048;24.638;2022-09-09T08:48:57;97689.63;;;27.81;48.63
10464;BME280;5279;42.048;24.638;2022-09-09T08:51:27;97687.03;;;28.13;49.76
10464;BME280;5279;42.048;24.638;2022-09-09T08:53:58;97686.25;;;28.39;49.29
10464;BME280;5279;42.048;24.638;2022-09-09T08:56:27;97683.66;;;28.76;48.28
10464;BME280;5279;42.048;24.638;2022-09-09T08:58:59;97676.94;;;28.62;45.43
10464;BME280;5279;42.048;24.638;2022-09-09T09:01:44;97676.63;;;28.58;45.78
10464;BME280;5279;42.048;24.638;2022-09-09T09:04:31;97677.72;;;28.57;46.58
10464;BME280;5279;42.048;24.638;2022-09-09T09:07:06;97673.00;;;28.48;46.50
10464;BME280;5279;42.048;24.638;2022-09-09T09:09:42;97672.03;;;28.64;47.07
10464;BME280;5279;42.048;24.638;2022-09-09T09:12:16;97677.22;;;28.87;48.61
10464;BME280;5279;42.048;24.638;2022-09-09T09:14:45;97657.66;;;29.00;45.92
10464;BME280;5279;42.048;24.638;2022-09-09T09:17:14;97661.78;;;29.35;45.51
10464;BME280;5279;42.048;24.638;2022-09-09T09:19:47;97652.75;;;29.76;45.68
10464;BME280;5279;42.048;24.638;2022-09-09T09:22:18;97655.84;;;30.67;43.43
10464;BME280;5279;42.048;24.638;2022-09-09T09:24:52;97652.00;;;31.64;40.18
10464;BME280;5279;42.048;24.638;2022-09-09T09:27:28;97647.69;;;33.10;36.73
10464;BME280;5279;42.048;24.638;2022-09-09T09:29:58;97640.19;;;34.20;36.23
10464;BME280;5279;42.048;24.638;2022-09-09T09:32:28;97641.28;;;35.45;32.70
10464;BME280;5279;42.048;24.638;2022-09-09T09:34:58;97634.75;;;36.14;30.76
10464;BME280;5279;42.048;24.638;2022-09-09T09:37:31;97642.97;;;36.55;31.02
10464;BME280;5279;42.048;24.638;2022-09-09T09:40:08;97639.06;;;36.92;30.40
10464;BME280;5279;42.048;24.638;2022-09-09T09:42:35;97625.09;;;37.41;29.66
10464;BME280;5279;42.048;24.638;2022-09-09T09:45:08;97623.50;;;37.18;29.35
10464;BME280;5279;42.048;24.638;2022-09-09T09:47:35;97624.50;;;37.84;29.68
10464;BME280;5279;42.048;24.638;2022-09-09T09:50:04;97618.94;;;38.06;29.03
10464;BME280;5279;42.048;24.638;2022-09-09T09:52:31;97616.66;;;38.34;27.56
10464;BME280;5279;42.048;24.638;2022-09-09T09:55:02;97609.00;;;38.13;28.13
10464;BME280;5279;42.048;24.638;2022-09-09T09:57:31;97610.47;;;37.71;28.93
10464;BME280;5279;42.048;24.638;2022-09-09T10:00:12;97610.38;;;39.27;26.95
10464;BME280;5279;42.048;24.638;2022-09-09T10:02:41;97601.44;;;39.68;26.57
10464;BME280;5279;42.048;24.638;2022-09-09T10:05:15;97590.50;;;40.01;25.86
10464;BME280;5279;42.048;24.638;2022-09-09T10:07:43;97589.22;;;39.69;25.54
10464;BME280;5279;42.048;24.638;2022-09-09T10:10:15;97598.44;;;40.40;24.43
10464;BME280;5279;42.048;24.638;2022-09-09T10:12:55;97592.25;;;41.18;23.99
10464;BME280;5279;42.048;24.638;2022-09-09T10:15:33;97587.69;;;41.13;24.05
10464;BME280;5279;42.048;24.638;2022-09-09T10:18:13;97599.16;;;41.44;23.82
10464;BME280;5279;42.048;24.638;2022-09-09T10:20:46;97592.78;;;41.44;23.77
10464;BME280;5279;42.048;24.638;2022-09-09T10:23:28;97600.59;;;41.18;22.96
10464;BME280;5279;42.048;24.638;2022-09-09T10:26:19;97596.84;;;40.60;24.54
10464;BME280;5279;42.048;24.638;2022-09-09T10:29:01;97595.59;;;41.56;23.24
10464;BME280;5279;42.048;24.638;2022-09-09T10:31:39;97603.47;;;41.54;23.02
10464;BME280;5279;42.048;24.638;2022-09-09T10:34:19;97598.91;;;41.82;23.09
10464;BME280;5279;42.048;24.638;2022-09-09T10:36:50;97588.44;;;42.16;22.67
10464;BME280;5279;42.048;24.638;2022-09-09T10:39:28;97585.84;;;42.35;22.02
10464;BME280;5279;42.048;24.638;2022-09-09T10:42:02;97578.94;;;42.57;22.48
10464;BME280;5279;42.048;24.638;2022-09-09T10:44:52;97580.25;;;42.47;22.42
10464;BME280;5279;42.048;24.638;2022-09-09T10:47:43;97587.88;;;43.02;22.21
10464;BME280;5279;42.048;24.638;2022-09-09T10:53:33;97574.13;;;42.81;21.19
10464;BME280;5279;42.048;24.638;2022-09-09T10:56:06;97579.13;;;43.16;21.56
10464;BME280;5279;42.048;24.638;2022-09-09T10:58:37;97575.63;;;43.19;21.17
10464;BME280;5279;42.048;24.638;2022-09-09T11:01:13;97566.00;;;43.32;21.33
10464;BME280;5279;42.048;24.638;2022-09-09T11:03:43;97561.63;;;43.93;21.44
10464;BME280;5279;42.048;24.638;2022-09-09T11:06:18;97563.22;;;44.10;20.15
10464;BME280;5279;42.048;24.638;2022-09-09T11:08:47;97551.66;;;43.77;21.07
10464;BME280;5279;42.048;24.638;2022-09-09T11:11:17;97556.69;;;43.40;21.81
10464;BME280;5279;42.048;24.638;2022-09-09T11:13:49;97553.81;;;43.83;20.79
10464;BME280;5279;42.048;24.638;2022-09-09T11:16:25;97556.28;;;44.20;20.69
10464;BME280;5279;42.048;24.638;2022-09-09T11:18:57;97557.31;;;44.66;19.91
10464;BME280;5279;42.048;24.638;2022-09-09T11:21:29;97545.16;;;44.58;19.94
10464;BME280;5279;42.048;24.638;2022-09-09T11:24:02;97548.09;;;44.84;19.67
10464;BME280;5279;42.048;24.638;2022-09-09T11:26:35;97547.41;;;43.83;20.20
10464;BME280;5279;42.048;24.638;2022-09-09T11:29:29;97540.78;;;42.57;21.87
10464;BME280;5279;42.048;24.638;2022-09-09T11:32:09;97539.78;;;40.42;23.78
10464;BME280;5279;42.048;24.638;2022-09-09T11:34:51;97539.66;;;38.27;26.86
10464;BME280;5279;42.048;24.638;2022-09-09T11:37:47;97525.84;;;37.00;29.02
10464;BME280;5279;42.048;24.638;2022-09-09T11:40:24;97538.72;;;35.75;31.13
10464;BME280;5279;42.048;24.638;2022-09-09T11:43:02;97530.91;;;35.09;31.54
10464;BME280;5279;42.048;24.638;2022-09-09T11:45:32;97533.06;;;34.29;33.82
10464;BME280;5279;42.048;24.638;2022-09-09T11:48:02;97532.34;;;33.81;36.00
10464;BME280;5279;42.048;24.638;2022-09-09T11:50:34;97524.19;;;33.28;35.11
10464;BME280;5279;42.048;24.638;2022-09-09T11:53:20;97513.94;;;32.81;36.48
10464;BME280;5279;42.048;24.638;2022-09-09T11:56:00;97509.22;;;32.58;37.19
10464;BME280;5279;42.048;24.638;2022-09-09T11:58:33;97508.59;;;32.27;38.75
10464;BME280;5279;42.048;24.638;2022-09-09T12:01:13;97506.78;;;32.13;38.79
10464;BME280;5279;42.048;24.638;2022-09-09T12:03:42;97509.25;;;32.14;38.32
10464;BME280;5279;42.048;24.638;2022-09-09T12:06:15;97508.38;;;32.58;39.56
10464;BME280;5279;42.048;24.638;2022-09-09T12:08:47;97507.44;;;33.48;35.57
10464;BME280;5279;42.048;24.638;2022-09-09T12:11:25;97501.44;;;33.89;37.15
10464;BME280;5279;42.048;24.638;2022-09-09T12:13:54;97496.16;;;33.50;36.69
10464;BME280;5279;42.048;24.638;2022-09-09T12:16:29;97493.72;;;32.96;36.48
10464;BME280;5279;42.048;24.638;2022-09-09T12:19:14;97493.34;;;32.11;38.41
10464;BME280;5279;42.048;24.638;2022-09-09T12:21:46;97485.66;;;31.69;39.25
10464;BME280;5279;42.048;24.638;2022-09-09T12:24:19;97488.09;;;31.71;38.63
10464;BME280;5279;42.048;24.638;2022-09-09T12:26:56;97470.41;;;32.36;38.28
10464;BME280;5279;42.048;24.638;2022-09-09T12:29:29;97469.44;;;32.51;39.25
10464;BME280;5279;42.048;24.638;2022-09-09T12:32:05;97470.47;;;32.31;37.92
10464;BME280;5279;42.048;24.638;2022-09-09T12:34:38;97472.00;;;32.08;39.22
10464;BME280;5279;42.048;24.638;2022-09-09T12:37:14;97472.63;;;32.68;39.50
10464;BME280;5279;42.048;24.638;2022-09-09T12:39:45;97468.59;;;32.84;37.27
10464;BME280;5279;42.048;24.638;2022-09-09T12:42:18;97466.84;;;32.35;37.77
10464;BME280;5279;42.048;24.638;2022-09-09T12:44:53;97475.63;;;32.37;39.46
10464;BME280;5279;42.048;24.638;2022-09-09T12:47:22;97463.66;;;32.23;38.22
10464;BME280;5279;42.048;24.638;2022-09-09T12:49:50;97457.91;;;32.20;39.92
10464;BME280;5279;42.048;24.638;2022-09-09T12:52:23;97458.16;;;32.86;37.75
10464;BME280;5279;42.048;24.638;2022-09-09T12:54:52;97455.28;;;32.96;37.06
10464;BME280;5279;42.048;24.638;2022-09-09T12:57:23;97461.31;;;34.25;34.64
10464;BME280;5279;42.048;24.638;2022-09-09T12:59:51;97456.72;;;36.03;32.32
10464;BME280;5279;42.048;24.638;2022-09-09T13:02:20;97449.09;;;37.28;30.07
10464;BME280;5279;42.048;24.638;2022-09-09T13:04:47;97452.06;;;37.01;29.85
10464;BME280;5279;42.048;24.638;2022-09-09T13:07:16;97454.09;;;36.56;30.64
10464;BME280;5279;42.048;24.638;2022-09-09T13:09:43;97462.28;;;36.25;30.92
10464;BME280;5279;42.048;24.638;2022-09-09T13:12:13;97446.38;;;35.73;31.56
10464;BME280;5279;42.048;24.638;2022-09-09T13:14:43;97444.31;;;35.92;32.88
10464;BME280;5279;42.048;24.638;2022-09-09T13:17:18;97431.78;;;37.05;30.29
10464;BME280;5279;42.048;24.638;2022-09-09T13:19:46;97432.47;;;36.80;29.88
10464;BME280;5279;42.048;24.638;2022-09-09T13:22:14;97433.28;;;35.92;31.17
10464;BME280;5279;42.048;24.638;2022-09-09T13:24:41;97434.56;;;34.90;34.14
10464;BME280;5279;42.048;24.638;2022-09-09T13:27:24;97430.19;;;34.57;35.03
10464;BME280;5279;42.048;24.638;2022-09-09T13:29:55;97424.84;;;34.66;33.92
10464;BME280;5279;42.048;24.638;2022-09-09T13:32:23;97427.13;;;34.91;34.00
10464;BME280;5279;42.048;24.638;2022-09-09T13:34:51;97424.97;;;34.88;35.11
10464;BME280;5279;42.048;24.638;2022-09-09T13:37:23;97422.00;;;34.84;33.77
10464;BME280;5279;42.048;24.638;2022-09-09T13:39:53;97416.19;;;34.99;34.63
10464;BME280;5279;42.048;24.638;2022-09-09T13:42:25;97410.28;;;34.79;35.28